Taos Ski Valley, NM (87525)

2:21 AM MDT on August 28, 2014 (GMT -0600)
Canon | Change Station
CLOSE
Current Station
Personal Weather Station
Location: Taos, NM
Elevation: 7001 ft
Nearby Weather Stations

Elev 7001 ft 36.39 °N, 105.56 °W | Updated 2 minutes ago

Clear
Clear
47.1 °F
Feels Like 47 °F
N
0.0
Wind Variable Wind from East

Today
High -- | Low -- °F
--% Chance of Precip.
Yesterday
High -- | Low -- °F
Precip. -- in
6:30 AM 7:35 PM
Waxing Crescent, 7% visible
Pressure 30.37 in
Visibility 10.0 miles
Clouds Clear
Windchill 47 °F
Dew Point 41 °F
Humidity 78%
Rainfall 0.00 in
Snow Depth Not available.
UV 0 out of 12
Pollen 9.70 out of 12
Air Quality Not available.
Flu Activity Not available.
METAR KAXX 280815Z AUTO 15003KT 10SM CLR 09/02 A3037 RMK AO2 T00920015

More Conditions Fewer Conditions

Pressure 30.37 in
Visibility 10.0 miles
Clouds Clear
Windchill 47 °F
Dew Point 41 °F
Humidity 78%
Rainfall 0.00 in
Snow Depth Not available.
UV 0 out of 12
Pollen 9.70 out of 12
Air Quality Not available.
Flu Activity Not available.
METAR KAXX 280815Z AUTO 15003KT 10SM CLR 09/02 A3037 RMK AO2 T00920015

More Conditions Fewer Conditions

10-Day Weather Forecast

Almanac

Astronomy

Aug. 28, 2014 Rise Set
Actual Time 6:30 AM MDT 7:35 PM MDT
Civil Twilight 6:04 AM MDT 8:02 PM MDT
Nautical Twilight 5:32 AM MDT 8:33 PM MDT
Astronomical Twilight 4:59 AM MDT 9:06 PM MDT
Moon 9:19 AM MDT 9:08 PM MDT
Length of Visible Light 13h 58m
Length of Day
13h 05m
Tomorrow will be 2m 10s shorter.
Waxing Crescent, 7% of the Moon is Illuminated
Today
Waxing Crescent
Sep 2
First Quarter
Sep 8
Full
Sep 15
Last Quarter
Sep 24
New

Today's Extremes

State Highs State Lows

Community

WunderPhotos

Upload Photos

1,747,918 photos uploaded!

Nearby

Snow Depth

Station Depth Elevation
Gallegos Peak 0 in 9800 ft
Tolby 1 in 10180 ft
Bateman 0 in 9300 ft
Wesner Springs 1 in 11120 ft
Hopewell 0 in 10000 ft

Earthquake Activity

City Distance Mag. Time & Date
No recent earthquake activity has been reported nearby.
Minimum magnitude displayed is 2.5.

Coastal Water Temperatures

Place Temperature
No Stations Reporting

Nearby Weather Stations